createdAt,value
2022-11-13T00:01:39.759Z,7.22
2022-11-13T00:04:59.713Z,6.81
2022-11-13T00:08:19.562Z,6.94
2022-11-13T00:11:39.496Z,7.21
2022-11-13T00:14:59.318Z,7.34
2022-11-13T00:18:19.088Z,7.34
2022-11-13T00:21:39.037Z,7.01
2022-11-13T00:24:58.908Z,7.09
2022-11-13T00:28:18.884Z,7.18
2022-11-13T00:31:38.848Z,6.37
2022-11-13T00:34:58.759Z,6.47
2022-11-13T00:38:18.571Z,6.48
2022-11-13T00:41:38.505Z,6.96
2022-11-13T00:44:58.698Z,7.20
2022-11-13T00:48:18.815Z,7.28
2022-11-13T00:51:39.153Z,7.04
2022-11-13T00:54:59.259Z,7.06
2022-11-13T00:58:19.084Z,7.19
2022-11-13T01:01:39.033Z,7.13
2022-11-13T01:04:58.915Z,7.22
2022-11-13T01:08:19.025Z,6.86
2022-11-13T01:11:38.963Z,6.51
2022-11-13T01:14:58.946Z,6.17
2022-11-13T01:18:19.216Z,6.35
2022-11-13T01:21:39.298Z,6.91
2022-11-13T01:24:59.311Z,6.49
2022-11-13T01:28:19.310Z,6.60
2022-11-13T01:31:39.239Z,7.01
2022-11-13T01:34:59.100Z,7.13
2022-11-13T01:38:19.097Z,7.31
2022-11-13T01:41:39.972Z,7.23
2022-11-13T01:45:02.142Z,7.23
2022-11-13T01:48:22.228Z,7.17
2022-11-13T01:51:49.171Z,7.12
2022-11-13T01:55:13.935Z,7.11
2022-11-13T01:58:34.689Z,7.04
2022-11-13T02:01:56.604Z,6.80
2022-11-13T02:05:16.488Z,6.95
2022-11-13T02:08:36.577Z,7.06
2022-11-13T02:11:57.337Z,7.07
2022-11-13T02:15:20.751Z,6.71
2022-11-13T02:18:41.386Z,6.81
2022-11-13T02:22:16.620Z,6.80
2022-11-13T02:25:38.652Z,6.67
2022-11-13T02:28:58.660Z,6.85
2022-11-13T02:32:18.724Z,6.80
2022-11-13T02:35:39.016Z,6.79
2022-11-13T02:39:02.854Z,6.99
2022-11-13T02:42:23.140Z,6.99
2022-11-13T02:45:43.050Z,6.72
2022-11-13T02:49:03.318Z,6.53
2022-11-13T02:52:23.176Z,6.76
2022-11-13T02:55:43.116Z,6.86
2022-11-13T02:59:03.086Z,6.77
2022-11-13T03:02:23.807Z,6.83
2022-11-13T03:05:48.631Z,6.10
2022-11-13T03:09:08.504Z,6.66
2022-11-13T03:12:28.703Z,6.80
2022-11-13T03:15:48.966Z,6.81
2022-11-13T03:19:09.154Z,6.64
2022-11-13T03:22:29.019Z,6.72
2022-11-13T03:25:48.960Z,6.69
2022-11-13T03:29:08.824Z,6.69
2022-11-13T03:32:28.757Z,6.80
2022-11-13T03:35:48.799Z,6.37
2022-11-13T03:39:08.762Z,6.73
2022-11-13T03:42:28.940Z,6.51
2022-11-13T03:45:49.124Z,6.36
2022-11-13T03:49:09.121Z,6.20
2022-11-13T03:52:29.143Z,6.33
2022-11-13T03:55:49.456Z,6.69
2022-11-13T03:59:09.454Z,6.67
2022-11-13T04:02:29.180Z,6.68
2022-11-13T04:05:49.932Z,6.67
2022-11-13T04:09:09.919Z,6.24
2022-11-13T04:12:29.762Z,6.58
2022-11-13T04:15:49.750Z,6.52
2022-11-13T04:19:09.619Z,6.57
2022-11-13T04:22:29.414Z,6.52
2022-11-13T04:25:49.314Z,6.72
2022-11-13T04:29:09.212Z,6.70
2022-11-13T04:32:29.102Z,6.86
2022-11-13T04:35:49.231Z,6.87
2022-11-13T04:39:09.135Z,6.84
2022-11-13T04:42:48.065Z,6.87
2022-11-13T04:46:08.267Z,6.87
2022-11-13T04:49:28.261Z,7.02
2022-11-13T04:52:48.390Z,6.89
2022-11-13T04:56:08.209Z,6.74
2022-11-13T04:59:28.121Z,6.89
2022-11-13T05:02:48.103Z,6.65
2022-11-13T05:06:10.134Z,6.79
2022-11-13T05:09:30.104Z,6.89
2022-11-13T05:12:50.132Z,6.84
2022-11-13T05:16:12.595Z,6.65
2022-11-13T05:19:33.480Z,6.61
2022-11-13T05:22:53.442Z,6.52
2022-11-13T05:26:13.894Z,6.53
2022-11-13T05:29:34.144Z,6.28
2022-11-13T05:32:54.183Z,6.64
2022-11-13T05:36:16.347Z,6.81
2022-11-13T05:39:36.271Z,6.77
2022-11-13T05:42:56.349Z,6.84
2022-11-13T05:46:22.505Z,6.98
2022-11-13T05:49:42.367Z,6.82
2022-11-13T05:53:02.230Z,6.72
2022-11-13T05:56:34.804Z,6.80
2022-11-13T05:59:54.859Z,6.79
2022-11-13T06:03:14.645Z,6.74
2022-11-13T06:06:34.867Z,6.76
2022-11-13T06:09:54.728Z,6.76
2022-11-13T06:13:14.819Z,6.86
2022-11-13T06:16:37.371Z,6.84
2022-11-13T06:19:57.497Z,6.86
2022-11-13T06:23:17.492Z,6.74
2022-11-13T06:26:38.652Z,6.50
2022-11-13T06:29:58.810Z,6.40
2022-11-13T06:33:18.844Z,6.36
2022-11-13T06:36:38.860Z,6.70
2022-11-13T06:39:58.946Z,6.55
2022-11-13T06:43:18.941Z,6.57
2022-11-13T06:46:38.932Z,6.61
2022-11-13T06:49:58.752Z,6.63
2022-11-13T06:53:18.667Z,6.74
2022-11-13T06:56:43.624Z,6.73
2022-11-13T07:00:05.091Z,6.60
2022-11-13T07:03:26.968Z,6.69
2022-11-13T07:06:47.068Z,6.70
2022-11-13T07:10:07.623Z,6.37
2022-11-13T07:13:28.985Z,6.49
2022-11-13T07:17:08.751Z,6.40
2022-11-13T07:20:29.564Z,6.59
2022-11-13T07:23:50.353Z,6.69
2022-11-13T07:27:10.463Z,6.49
2022-11-13T07:30:30.492Z,6.35
2022-11-13T07:33:51.880Z,6.16
2022-11-13T07:37:11.912Z,6.39
2022-11-13T07:40:31.915Z,6.38
2022-11-13T07:43:51.785Z,6.47
2022-11-13T07:47:11.578Z,6.62
2022-11-13T07:50:34.623Z,6.35
2022-11-13T07:53:54.590Z,6.11
2022-11-13T07:57:14.982Z,6.21
2022-11-13T08:00:36.034Z,6.29
2022-11-13T08:03:55.811Z,6.45
2022-11-13T08:07:15.643Z,6.37
2022-11-13T08:10:36.437Z,6.50
2022-11-13T08:13:56.340Z,6.39
2022-11-13T08:17:16.257Z,6.45
2022-11-13T08:20:36.072Z,6.44
2022-11-13T08:23:55.961Z,6.23
2022-11-13T08:27:16.139Z,6.31
2022-11-13T08:30:36.378Z,6.52
2022-11-13T08:33:56.382Z,6.43
2022-11-13T08:37:16.362Z,6.47
2022-11-13T08:40:36.315Z,6.38
2022-11-13T08:43:56.402Z,6.47
2022-11-13T08:47:16.491Z,6.52
2022-11-13T08:50:36.552Z,6.51
2022-11-13T08:53:56.441Z,6.39
2022-11-13T08:57:16.270Z,6.46
2022-11-13T09:00:36.159Z,6.52
2022-11-13T09:03:56.002Z,6.28
2022-11-13T09:07:16.263Z,6.07
2022-11-13T09:10:36.541Z,5.70
2022-11-13T09:13:56.392Z,5.56
2022-11-13T09:17:16.681Z,5.60
2022-11-13T09:20:37.108Z,5.64
2022-11-13T09:23:57.469Z,5.80
2022-11-13T09:27:18.221Z,5.71
2022-11-13T09:30:39.761Z,5.83
2022-11-13T09:33:59.475Z,5.50
2022-11-13T09:37:19.466Z,5.42
2022-11-13T09:40:55.683Z,5.47
2022-11-13T09:44:24.412Z,5.63
2022-11-13T09:47:47.050Z,5.75
2022-11-13T09:51:15.086Z,5.63
2022-11-13T09:54:34.991Z,5.77
2022-11-13T09:58:16.671Z,6.10
2022-11-13T10:01:48.782Z,6.11
2022-11-13T10:05:26.662Z,6.03
2022-11-13T10:08:55.720Z,5.58
2022-11-13T10:12:15.938Z,5.67
2022-11-13T10:15:37.209Z,5.62
2022-11-13T10:19:18.186Z,5.59
2022-11-13T10:22:51.384Z,6.15
2022-11-13T10:26:15.819Z,6.33
2022-11-13T10:29:36.196Z,6.12
2022-11-13T10:33:06.013Z,6.22
2022-11-13T10:36:42.710Z,6.22
2022-11-13T10:40:03.310Z,6.37
2022-11-13T10:43:26.090Z,6.33
2022-11-13T10:46:46.450Z,6.47
2022-11-13T10:50:29.163Z,6.09
2022-11-13T10:53:50.354Z,6.37
2022-11-13T10:57:34.867Z,6.56
2022-11-13T11:00:54.693Z,6.50
2022-11-13T11:04:21.944Z,6.47
2022-11-13T11:07:42.227Z,6.45
2022-11-13T11:11:34.577Z,6.42
2022-11-13T11:15:15.469Z,5.79
2022-11-13T11:18:47.456Z,5.91
2022-11-13T11:22:15.923Z,6.11
2022-11-13T11:25:50.463Z,6.29
2022-11-13T11:29:24.958Z,6.12
2022-11-13T11:33:11.520Z,6.30
2022-11-13T11:36:46.263Z,6.38
2022-11-13T11:40:21.828Z,6.62
2022-11-13T11:43:54.357Z,6.59
2022-11-13T11:47:16.843Z,6.42
2022-11-13T11:50:46.185Z,6.44
2022-11-13T11:54:46.583Z,6.67
2022-11-13T11:58:26.391Z,6.25
2022-11-13T12:02:20.630Z,6.32
2022-11-13T12:05:59.332Z,6.58
2022-11-13T12:09:56.830Z,6.71
2022-11-13T12:13:28.861Z,6.88
2022-11-13T12:16:56.549Z,6.78
2022-11-13T12:20:23.804Z,6.76
2022-11-13T12:23:53.536Z,6.68
2022-11-13T12:27:25.605Z,6.85
2022-11-13T12:30:48.843Z,6.84
2022-11-13T12:34:34.908Z,6.94
2022-11-13T12:38:20.068Z,6.78
2022-11-13T12:41:50.635Z,6.78
2022-11-13T12:45:22.211Z,6.83
2022-11-13T12:48:47.764Z,6.75
2022-11-13T12:52:19.012Z,6.47
2022-11-13T12:55:40.941Z,6.17
2022-11-13T13:03:20.563Z,6.39
2022-11-13T13:07:02.146Z,6.65
2022-11-13T13:10:32.270Z,6.83
2022-11-13T13:14:16.521Z,6.69
2022-11-13T13:17:37.269Z,6.73
2022-11-13T13:20:59.492Z,6.75
2022-11-13T13:24:36.352Z,6.04
2022-11-13T13:27:58.556Z,6.36
2022-11-13T13:31:46.475Z,6.68
2022-11-13T13:35:22.111Z,6.64
2022-11-13T13:38:58.654Z,6.61
2022-11-13T13:42:34.408Z,6.68
2022-11-13T13:46:02.244Z,6.57
2022-11-13T13:49:25.186Z,6.63
2022-11-13T13:52:50.007Z,6.58
2022-11-13T13:56:15.367Z,6.39
2022-11-13T13:59:37.450Z,6.47
2022-11-13T14:02:58.245Z,6.34
2022-11-13T14:06:23.833Z,6.71
2022-11-13T14:09:43.929Z,6.40
2022-11-13T14:13:04.970Z,6.81
2022-11-13T14:16:25.739Z,6.72
2022-11-13T14:19:54.020Z,6.76
2022-11-13T14:23:35.920Z,6.76
2022-11-13T14:26:57.682Z,6.80
2022-11-13T14:30:37.759Z,6.70
2022-11-13T14:34:02.731Z,6.65
2022-11-13T14:37:28.549Z,6.70
2022-11-13T14:40:49.824Z,6.58
2022-11-13T14:44:12.221Z,6.81
2022-11-13T14:47:37.602Z,6.80
2022-11-13T14:51:06.762Z,6.84
2022-11-13T14:55:07.969Z,6.91
2022-11-13T14:58:34.947Z,6.93
2022-11-13T15:01:58.874Z,6.79
2022-11-13T15:05:19.495Z,6.78
2022-11-13T15:08:39.721Z,6.96
2022-11-13T15:11:59.965Z,6.96
2022-11-13T15:15:28.385Z,6.98
2022-11-13T15:18:53.415Z,6.74
2022-11-13T15:22:30.524Z,6.87
2022-11-13T15:25:50.719Z,6.89
2022-11-13T15:29:10.935Z,6.90
2022-11-13T15:32:31.821Z,6.97
2022-11-13T15:35:52.298Z,6.88
2022-11-13T15:39:22.999Z,7.00
2022-11-13T15:42:44.539Z,6.93
2022-11-13T15:46:08.431Z,6.76
2022-11-13T15:49:28.716Z,6.71
2022-11-13T15:52:53.308Z,6.88
2022-11-13T15:56:13.696Z,7.01
2022-11-13T15:59:34.098Z,6.70
2022-11-13T16:02:59.740Z,7.00
2022-11-13T16:06:23.885Z,7.02
2022-11-13T16:09:45.429Z,6.67
2022-11-13T16:13:05.882Z,6.79
2022-11-13T16:16:37.788Z,6.68
2022-11-13T16:19:58.209Z,6.96
2022-11-13T16:23:19.074Z,6.90
2022-11-13T16:26:42.376Z,6.73
2022-11-13T16:30:06.899Z,7.01
2022-11-13T16:33:27.796Z,6.77
2022-11-13T16:36:51.804Z,7.01
2022-11-13T16:40:17.845Z,6.94
2022-11-13T16:43:38.905Z,6.97
2022-11-13T16:46:59.402Z,6.93
2022-11-13T16:50:27.029Z,6.88
2022-11-13T16:53:47.662Z,7.06
2022-11-13T16:57:13.063Z,6.90
2022-11-13T17:00:33.316Z,6.96
2022-11-13T17:03:53.679Z,7.06
2022-11-13T17:07:15.430Z,7.10
2022-11-13T17:10:38.892Z,7.22
2022-11-13T17:14:01.398Z,7.20
2022-11-13T17:17:21.588Z,7.12
2022-11-13T17:20:42.092Z,7.20
2022-11-13T17:24:03.602Z,7.14
2022-11-13T17:27:24.306Z,7.21
2022-11-13T17:30:46.120Z,7.18
2022-11-13T17:34:06.302Z,7.19
2022-11-13T17:37:26.864Z,6.98
2022-11-13T17:40:47.394Z,6.94
2022-11-13T17:44:07.578Z,6.94
2022-11-13T17:47:28.173Z,6.87
2022-11-13T17:50:59.502Z,7.08
2022-11-13T17:54:20.294Z,7.25
2022-11-13T17:57:41.566Z,7.27
2022-11-13T18:01:26.011Z,7.27
2022-11-13T18:04:47.811Z,7.24
2022-11-13T18:08:07.968Z,6.99
2022-11-13T18:11:29.898Z,7.26
2022-11-13T18:14:52.610Z,7.32
2022-11-13T18:18:12.963Z,7.41
2022-11-13T18:21:35.871Z,7.35
2022-11-13T18:24:56.053Z,7.24
2022-11-13T18:28:17.375Z,7.18
2022-11-13T18:31:38.163Z,7.43
2022-11-13T18:34:58.642Z,7.50
2022-11-13T18:38:18.785Z,7.39
2022-11-13T18:41:38.995Z,7.44
2022-11-13T18:45:03.096Z,7.38
2022-11-13T18:48:29.992Z,7.38
2022-11-13T18:51:50.392Z,7.30
2022-11-13T18:55:10.354Z,7.31
2022-11-13T18:58:31.146Z,7.34
2022-11-13T19:01:53.781Z,7.35
2022-11-13T19:05:13.963Z,7.43
2022-11-13T19:08:40.390Z,7.31
2022-11-13T19:12:01.020Z,7.21
2022-11-13T19:15:21.317Z,7.41
2022-11-13T19:18:43.720Z,7.42
2022-11-13T19:22:04.094Z,7.42
2022-11-13T19:25:24.721Z,7.24
2022-11-13T19:28:54.763Z,7.26
2022-11-13T19:32:14.705Z,7.11
2022-11-13T19:35:36.201Z,7.16
2022-11-13T19:38:57.367Z,7.17
2022-11-13T19:42:17.239Z,7.19
2022-11-13T19:45:37.058Z,7.25
2022-11-13T19:48:56.932Z,7.20
2022-11-13T19:52:16.896Z,7.42
2022-11-13T19:55:36.709Z,7.45
2022-11-13T19:58:57.179Z,7.41
2022-11-13T20:02:17.507Z,7.14
2022-11-13T20:05:41.811Z,7.34
2022-11-13T20:09:02.598Z,7.43
2022-11-13T20:12:23.773Z,7.36
2022-11-13T20:15:43.951Z,7.38
2022-11-13T20:19:04.092Z,7.41
2022-11-13T20:22:23.898Z,7.41
2022-11-13T20:25:58.105Z,7.20
2022-11-13T20:29:18.499Z,7.22
2022-11-13T20:32:39.830Z,7.27
2022-11-13T20:36:00.938Z,7.30
2022-11-13T20:39:20.886Z,7.38
2022-11-13T20:42:40.790Z,7.31
2022-11-13T20:46:05.814Z,7.31
2022-11-13T20:49:25.607Z,7.39
2022-11-13T20:52:45.608Z,7.36
2022-11-13T20:56:08.117Z,7.26
2022-11-13T20:59:28.332Z,7.11
2022-11-13T21:02:48.224Z,7.08
2022-11-13T21:06:13.847Z,7.25
2022-11-13T21:09:33.687Z,7.13
2022-11-13T21:12:54.831Z,7.27
2022-11-13T21:16:16.672Z,7.34
2022-11-13T21:19:36.907Z,7.44
2022-11-13T21:22:57.211Z,6.82
2022-11-13T21:26:17.536Z,7.19
2022-11-13T21:29:37.348Z,7.10
2022-11-13T21:33:00.604Z,7.13
2022-11-13T21:36:26.324Z,7.03
2022-11-13T21:39:46.064Z,7.08
2022-11-13T21:43:05.883Z,7.38
2022-11-13T21:46:34.857Z,7.28
2022-11-13T21:49:54.947Z,7.28
2022-11-13T21:53:15.187Z,7.39
2022-11-13T21:56:37.109Z,7.31
2022-11-13T21:59:56.988Z,7.26
2022-11-13T22:03:16.917Z,6.88
2022-11-13T22:06:36.823Z,7.21
2022-11-13T22:09:56.867Z,7.07
2022-11-13T22:13:16.791Z,7.30
2022-11-13T22:16:39.456Z,7.23
2022-11-13T22:19:59.615Z,7.17
2022-11-13T22:23:20.055Z,6.91
2022-11-13T22:26:42.194Z,7.01
2022-11-13T22:30:02.363Z,7.06
2022-11-13T22:33:22.224Z,6.96
2022-11-13T22:36:42.202Z,6.98
2022-11-13T22:40:02.235Z,6.47
2022-11-13T22:43:22.559Z,6.76
2022-11-13T22:46:42.321Z,6.90
2022-11-13T22:50:02.195Z,6.84
2022-11-13T22:53:22.076Z,6.90
2022-11-13T22:56:42.362Z,6.88
2022-11-13T23:00:04.834Z,6.80
2022-11-13T23:03:24.876Z,6.87
2022-11-13T23:06:44.928Z,6.81
2022-11-13T23:10:05.179Z,6.85
2022-11-13T23:13:25.424Z,6.80
2022-11-13T23:16:45.318Z,6.82
2022-11-13T23:20:05.819Z,6.61
2022-11-13T23:23:26.052Z,6.66
2022-11-13T23:26:48.143Z,6.57
2022-11-13T23:30:08.951Z,6.62
2022-11-13T23:33:29.486Z,6.77
2022-11-13T23:36:49.423Z,6.63
2022-11-13T23:40:10.671Z,6.37
2022-11-13T23:44:01.649Z,6.75
2022-11-13T23:47:11.356Z,6.81
2022-11-13T23:50:31.386Z,6.66
2022-11-13T23:53:51.441Z,6.71
2022-11-13T23:57:11.251Z,6.79
